Latest Weather Observations for Bickley

IDW60901

Issued at 6:05 am WST Sunday 31 August 2014 (issued every 10 minutes, with the page automatically refreshed every 10 minutes)

About weather observations | Map of Perth area stations | Latest observations for Perth area | Other Formats
Station Details ID: 009240 Name: BICKLEY Lat: -32.01 Lon: 116.14 Height: 384.0 m
Data from the previous 72 hours. | See also: Recent months at Bickley
Date/Time
WST
Tmp

°C
App
Tmp
°C
Dew
Point
°C
Rel
Hum
%
Delta-T

°C
Wind Press
QNH
hPa
Press
MSL
hPa
Rain
since
9 am
mm
Dir
 
Spd
km/h
Gust
km/h
Spd
kts
Gust
kts
31/06:00am 8.9 - 8.8 99 0.0 - - - - - - - 0.6
31/05:30am 9.1 - 9.0 99 0.1 - - - - - - - 0.6
31/05:00am 9.4 - 9.3 99 0.1 - - - - - - - 0.6
31/04:30am 9.4 - 9.3 99 0.1 - - - - - - - 0.2
31/04:00am 9.2 - 9.1 99 0.1 - - - - - - - 0.2
31/03:30am 9.6 - 9.5 99 0.1 - - - - - - - 0.2
31/03:00am 9.7 - 9.6 99 0.1 - - - - - - - 0.2
31/02:30am 9.4 - 9.3 99 0.1 - - - - - - - 0.2
31/02:00am 9.5 - 9.2 98 0.2 - - - - - - - 0.2
31/01:30am 10.3 - 9.7 96 0.3 - - - - - - - 0.2
31/01:00am 10.3 - 9.7 96 0.3 - - - - - - - 0.2
31/12:30am 10.0 - 9.4 96 0.3 - - - - - - - 0.2
31/12:00am 10.2 - 9.7 97 0.3 - - - - - - - 0.2
 
Date/Time
WST
Tmp

°C
App
Tmp
°C
Dew
Point
°C
Rel
Hum
%
Delta-T

°C
Wind Press
QNH
hPa
Press
MSL
hPa
Rain
since
9 am
mm
Dir
 
Spd
km/h
Gust
km/h
Spd
kts
Gust
kts
30/11:30pm 9.9 - 9.8 99 0.1 - - - - - - - 0.2
30/11:00pm 10.0 - 9.5 97 0.3 - - - - - - - 0.2
30/10:30pm 10.2 - 9.6 96 0.3 - - - - - - - 0.2
30/10:00pm 10.3 - 9.7 96 0.3 - - - - - - - 0.2
30/09:30pm 10.9 - 10.0 94 0.5 - - - - - - - 0.2
30/09:00pm 10.7 - 10.1 96 0.3 - - - - - - - 0.2
30/08:30pm 10.9 - 10.0 94 0.5 - - - - - - - 0.2
30/08:00pm 11.1 - 10.0 93 0.6 - - - - - - - 0.2
30/07:30pm 11.4 - 10.0 91 0.7 - - - - - - - 0.2
30/07:00pm 11.7 - 10.4 92 0.7 - - - - - - - 0.2
30/06:30pm 11.6 - 10.7 94 0.5 - - - - - - - 0.2
30/06:00pm 11.6 - 10.5 93 0.6 - - - - - - - 0.2
30/05:30pm 12.4 - 10.3 87 1.1 - - - - - - - 0.2
30/05:00pm 13.2 - 10.6 84 1.4 - - - - - - - 0.2
30/04:30pm 13.5 - 10.3 81 1.7 - - - - - - - 0.2
30/04:00pm 13.9 - 10.5 80 1.8 - - - - - - - 0.2
30/03:30pm 14.2 - 11.9 86 1.3 - - - - - - - 0.2
30/03:00pm 14.3 - 11.8 85 1.4 - - - - - - - 0.2
30/02:30pm 14.7 - 11.3 80 1.9 - - - - - - - 0.2
30/02:00pm 14.6 - 12.1 85 1.4 - - - - - - - 0.2
30/01:30pm 14.5 - 12.9 90 0.9 - - - - - - - 0.2
30/01:00pm 14.7 - 12.0 84 1.5 - - - - - - - 0.2
30/12:30pm 14.5 - 12.2 86 1.3 - - - - - - - 0.2
30/12:00pm 13.5 - 12.7 95 0.4 - - - - - - - 0.2
30/11:30am 12.9 - 12.6 98 0.2 - - - - - - - 0.2
30/11:00am 14.0 - 12.9 93 0.6 - - - - - - - 0.2
30/10:30am 13.1 - 12.3 95 0.4 - - - - - - - 0.2
30/10:00am 13.2 - 13.0 99 0.1 - - - - - - - 0.2
30/09:30am 12.8 - 12.8 100 0.0 - - - - - - - 0.2
30/09:00am 12.7 - 12.7 100 0.0 - - - - - - - 65.0
30/08:30am 13.0 - 13.0 100 0.0 - - - - - - - 65.0
30/08:00am 12.7 - 12.7 100 0.0 - - - - - - - 65.0
30/07:30am 12.7 - 12.7 100 0.0 - - - - - - - 65.0
30/07:00am 12.6 - 12.6 100 0.0 - - - - - - - 64.6
30/06:30am 12.8 - 12.8 100 0.0 - - - - - - - 64.6
30/06:00am 13.0 - 13.0 100 0.0 - - - - - - - 64.4
30/05:30am 13.2 - 13.2 100 0.0 - - - - - - - 63.6
30/05:00am 13.4 - 13.4 100 0.0 - - - - - - - 60.8
30/04:30am 13.4 - 13.4 100 0.0 - - - - - - - 59.8
30/04:00am 13.5 - 13.5 100 0.0 - - - - - - - 59.8
30/03:30am 13.3 - 13.3 100 0.0 - - - - - - - 59.6
30/03:00am 13.2 - 13.2 100 0.0 - - - - - - - 59.6
30/02:30am 13.0 - 13.0 100 0.0 - - - - - - - 59.4
30/02:00am 13.0 - 13.0 100 0.0 - - - - - - - 57.6
30/01:30am 12.8 - 12.8 100 0.0 - - - - - - - 56.6
30/01:00am 12.7 - 12.7 100 0.0 - - - - - - - 55.4
30/12:30am 12.6 - 12.6 100 0.0 - - - - - - - 54.2
30/12:00am 12.6 - 12.6 100 0.0 - - - - - - - 52.2
 
Date/Time
WST
Tmp

°C
App
Tmp
°C
Dew
Point
°C
Rel
Hum
%
Delta-T

°C
Wind Press
QNH
hPa
Press
MSL
hPa
Rain
since
9 am
mm
Dir
 
Spd
km/h
Gust
km/h
Spd
kts
Gust
kts
29/11:30pm 12.4 - 12.4 100 0.0 - - - - - - - 50.8
29/11:00pm 12.4 - 12.2 99 0.1 - - - - - - - 49.6
29/10:30pm 12.5 - 12.3 99 0.1 - - - - - - - 49.2
29/10:00pm 12.6 - 12.4 99 0.1 - - - - - - - 47.4
29/09:30pm 12.9 - 12.7 99 0.1 - - - - - - - 44.2
29/09:00pm 13.1 - 12.9 99 0.1 - - - - - - - 43.2
29/08:30pm 13.6 - 13.6 100 0.0 - - - - - - - 42.0
29/08:00pm 13.7 - 13.7 100 0.0 - - - - - - - 39.6
29/07:30pm 13.3 - 13.1 99 0.1 - - - - - - - 38.8
29/07:00pm 13.3 - 13.1 99 0.1 - - - - - - - 35.2
29/06:30pm 14.6 - 14.6 100 0.0 - - - - - - - 22.0
29/06:00pm 14.8 - 14.8 100 0.0 - - - - - - - 19.2
29/05:30pm 15.0 - 15.0 100 0.0 - - - - - - - 18.6
29/05:00pm 15.0 - 15.0 100 0.0 - - - - - - - 17.0
29/04:30pm 15.0 - 14.8 99 0.1 - - - - - - - 15.0
29/04:00pm 15.3 - 15.1 99 0.1 - - - - - - - 9.4
29/03:30pm 15.2 - 15.0 99 0.1 - - - - - - - 9.2
29/03:00pm 15.2 - 15.2 100 0.0 - - - - - - - 9.2
29/02:30pm 14.9 - 14.7 99 0.1 - - - - - - - 9.2
29/02:00pm 14.9 - 14.7 99 0.1 - - - - - - - 9.0
29/01:30pm 14.9 - 14.7 99 0.1 - - - - - - - 8.8
29/01:00pm 14.7 - 14.5 99 0.1 - - - - - - - 6.8
29/12:30pm 15.5 - 14.9 96 0.4 - - - - - - - 1.4
29/12:00pm 16.8 - 14.3 85 1.5 - - - - - - - 0.0
29/11:30am 18.7 - 13.6 72 3.0 - - - - - - - 0.0
29/11:00am 18.7 - 14.2 75 2.6 - - - - - - - 0.0
29/10:30am 18.4 - 14.5 78 2.3 - - - - - - - 0.0
29/10:00am 17.3 - 14.9 86 1.4 - - - - - - - 0.0
29/09:30am 16.3 - 15.7 96 0.4 - - - - - - - 0.0
29/09:00am 15.6 - 15.4 99 0.1 - - - - - - - 0.0
29/08:30am 15.3 - 15.1 99 0.1 - - - - - - - 0.0
29/08:00am 14.9 - 14.9 100 0.0 - - - - - - - 0.0
29/07:30am 14.7 - 14.7 100 0.0 - - - - - - - 0.0
29/07:00am 14.6 - 14.6 100 0.0 - - - - - - - 0.0
29/06:30am 14.5 - 14.5 100 0.0 - - - - - - - 0.0
29/06:00am 14.5 - 14.5 100 0.0 - - - - - - - 0.0
29/05:30am 14.7 - 14.7 100 0.0 - - - - - - - 0.0
29/05:00am 14.5 - 14.5 100 0.0 - - - - - - - 0.0
29/04:30am 14.5 - 14.5 100 0.0 - - - - - - - 0.0
29/04:00am 14.7 - 14.7 100 0.0 - - - - - - - 0.0
29/03:30am 14.7 - 14.5 99 0.1 - - - - - - - 0.0
29/03:00am 14.4 - 14.2 99 0.1 - - - - - - - 0.0
29/02:30am 14.1 - 13.9 99 0.1 - - - - - - - 0.0
29/02:00am 13.7 - 13.5 99 0.1 - - - - - - - 0.0
29/01:30am 13.7 - 13.5 99 0.1 - - - - - - - 0.0
29/01:00am 13.8 - 13.6 99 0.1 - - - - - - - 0.0
29/12:30am 14.1 - 13.9 99 0.1 - - - - - - - 0.0
29/12:00am 14.7 - 14.5 99 0.1 - - - - - - - 0.0
 
Date/Time
WST
Tmp

°C
App
Tmp
°C
Dew
Point
°C
Rel
Hum
%
Delta-T

°C
Wind Press
QNH
hPa
Press
MSL
hPa
Rain
since
9 am
mm
Dir
 
Spd
km/h
Gust
km/h
Spd
kts
Gust
kts
28/11:30pm 14.8 - 14.6 99 0.1 - - - - - - - 0.0
28/11:00pm 15.1 - 14.8 98 0.2 - - - - - - - 0.0
28/10:30pm 15.6 - 15.1 97 0.3 - - - - - - - 0.0
28/10:00pm 15.5 - 14.7 95 0.5 - - - - - - - 0.0
28/09:30pm 15.7 - 14.6 93 0.6 - - - - - - - 0.0
28/09:00pm 15.9 - 14.6 92 0.8 - - - - - - - 0.0
28/08:30pm 15.5 - 13.9 90 0.9 - - - - - - - 0.0
28/08:00pm 15.2 - 13.7 91 0.9 - - - - - - - 0.0
28/07:30pm 15.4 - 13.2 87 1.2 - - - - - - - 0.0
28/07:00pm 15.6 - 12.4 81 1.8 - - - - - - - 0.0
28/06:30pm 16.2 - 11.2 72 2.7 - - - - - - - 0.0
28/06:00pm 16.7 - 10.3 66 3.5 - - - - - - - 0.0
28/05:30pm 17.2 - 10.3 64 3.7 - - - - - - - 0.0
28/05:00pm 17.7 - 9.3 58 4.5 - - - - - - - 0.0
28/04:30pm 18.4 - 7.8 50 5.5 - - - - - - - 0.0
28/04:00pm 19.3 - 7.1 45 6.3 - - - - - - - 0.0
28/03:30pm 20.5 - 6.8 41 7.1 - - - - - - - 0.0
28/03:00pm 21.4 - 5.3 35 8.1 - - - - - - - 0.0
28/02:30pm 21.2 - 5.9 37 7.8 - - - - - - - 0.0
28/02:00pm 21.4 - 7.3 40 7.4 - - - - - - - 0.0
28/01:30pm 21.0 - 8.3 44 6.8 - - - - - - - 0.0
28/01:00pm 19.8 - 9.7 52 5.5 - - - - - - - 0.0
28/12:30pm 18.9 - 10.2 57 4.7 - - - - - - - 0.0
28/12:00pm 18.6 - 9.1 54 5.1 - - - - - - - 0.0
28/11:30am 18.2 - 8.2 52 5.2 - - - - - - - 0.0
28/11:00am 17.6 - 8.2 54 4.9 - - - - - - - 0.0
28/10:30am 17.2 13.0 7.5 53 5.0 NNW 19 30 10 16 - - 0.0
28/10:00am 16.2 13.1 8.9 62 3.8 N 15 26 8 14 - - 0.0
28/09:30am 15.7 12.5 8.4 62 3.8 NNW 15 22 8 12 - - 0.0
28/09:00am 14.1 10.4 8.1 67 3.1 N 17 26 9 14 - - 0.0
28/08:30am 13.4 - 8.3 71 2.6 - - - - - - - 0.0
28/08:00am 12.5 - 8.2 75 2.2 - - - - - - - 0.0
28/07:30am 11.6 - 7.9 78 1.8 - - - - - - - 0.0
28/07:00am 11.5 - 8.0 79 1.7 - - - - - - - 0.0
28/06:30am 11.4 - 7.9 79 1.7 - - - - - - - 0.0

Latest Capital City Observations: Canberra | Sydney | Melbourne | Brisbane | Adelaide | Perth | Hobart | Darwin

Other Formats:

Comma delimited format used in spreadsheet applications
http://www.bom.gov.au/fwo/IDW60901/IDW60901.95610.axf

JavaScript Object Notation format (JSON) in row-major order
http://www.bom.gov.au/fwo/IDW60901/IDW60901.95610.json